Kanto Maru — JD2868 — position and weather

sailwx.info

Track history (hours):
 
Tides and Currents Weather Stations Pressure Air Temp Water Temp Dewpoint Dewpoint Depression Visibility Wind Speed Wind Dir Waves Ship Positions

Kanto Maru

Last reported at 2017-Oct-19 01:30 UTC. Time now 2017-Oct-19 01:42 UTC.
Position N 35°23' E 139°40'.

Length 40 m.

Type: Tug. MMSI: 431000841.

Date/timePositionNaut miles runAvg speedWind from/ knotsBaromVisibWave heightAir tempDewpointWater temp
2017-Oct-19 01:30N 35°23' E 139°40'0 0.0
2017-Oct-19 01:00N 35°23' E 139°40'0 0.0
2017-Oct-19 00:30N 35°23' E 139°40'5 9.1
2017-Oct-18 23:55N 35°25' E 139°46'4 9.1
2017-Oct-18 23:30N 35°21' E 139°45'611.1
2017-Oct-18 23:00N 35°16' E 139°46'611.1
2017-Oct-18 22:30N 35°10' E 139°47'0 0.9
2017-Oct-18 22:00N 35°11' E 139°47'611.6
2017-Oct-18 21:29N 35°17' E 139°44'3 5.9
2017-Oct-18 21:00N 35°17' E 139°41'0 0.0
2017-Oct-18 20:30N 35°17' E 139°41'0 0.0
2017-Oct-18 20:00N 35°17' E 139°41'0 0.0
2017-Oct-18 19:30N 35°17' E 139°41'0 0.0
2017-Oct-18 19:00N 35°17' E 139°41'0 0.0
2017-Oct-18 18:30N 35°17' E 139°41'0 0.0
2017-Oct-18 17:59N 35°17' E 139°41'0 0.0
2017-Oct-18 17:29N 35°17' E 139°41'0 0.0
2017-Oct-18 17:00N 35°17' E 139°41'0 0.0
2017-Oct-18 16:30N 35°17' E 139°41'0 0.0
2017-Oct-18 16:00N 35°17' E 139°41'0 0.0
2017-Oct-18 15:30N 35°17' E 139°41'0 0.0
2017-Oct-18 14:55N 35°17' E 139°41'0 0.0
2017-Oct-18 13:56N 35°17' E 139°41'0 0.0
2017-Oct-18 11:39N 35°17' E 139°41'0 0.0
2017-Oct-18 10:05N 35°17' E 139°41'0 0.0
2017-Oct-18 09:52N 35°17' E 139°41'0 0.0
2017-Oct-18 09:30N 35°17' E 139°41'0 0.0
2017-Oct-18 08:49N 35°17' E 139°41'0 0.0
2017-Oct-18 08:29N 35°17' E 139°41'0 0.0
2017-Oct-18 07:57N 35°17' E 139°41'0 0.0
2017-Oct-18 07:27N 35°17' E 139°41'0 0.7
2017-Oct-18 07:00N 35°17' E 139°41'2 3.1
2017-Oct-18 06:31N 35°19' E 139°41'2 3.3
2017-Oct-18 06:00N 35°17' E 139°41'0 0.0
2017-Oct-18 05:20N 35°17' E 139°41'0 0.0
2017-Oct-18 01:18N 35°17' E 139°41'2 5.5
2017-Oct-18 01:00N 35°19' E 139°41'2 4.0
2017-Oct-18 00:30N 35°17' E 139°39'0 0.1
2017-Oct-18 00:00N 35°17' E 139°39'0 0.3
2017-Oct-17 23:30N 35°17' E 139°39'1 2.2
2017-Oct-17 23:00N 35°17' E 139°41'0 0.3
2017-Oct-17 22:30N 35°17' E 139°41'0 0.0
2017-Oct-17 22:00N 35°17' E 139°41'0 0.0
2017-Oct-17 21:30N 35°17' E 139°41'0 0.0
2017-Oct-17 21:00N 35°17' E 139°41'0 0.0
2017-Oct-17 20:30N 35°17' E 139°41'0 0.0
2017-Oct-17 20:00N 35°17' E 139°41'0 0.1
2017-Oct-17 19:30N 35°17' E 139°41'0 0.1
2017-Oct-17 19:00N 35°17' E 139°41'0 0.0
2017-Oct-17 18:30N 35°17' E 139°41'0 0.0
2017-Oct-17 18:00N 35°17' E 139°41'0 0.0
2017-Oct-17 17:30N 35°17' E 139°41'0 0.0
2017-Oct-17 17:00N 35°17' E 139°41'0 0.0
2017-Oct-17 16:30N 35°17' E 139°41'0 0.0
2017-Oct-17 16:00N 35°17' E 139°41'0 0.0
2017-Oct-17 15:30N 35°17' E 139°41'0 0.0
2017-Oct-17 15:00N 35°17' E 139°41'0 0.0
2017-Oct-17 14:30N 35°17' E 139°41'0 0.0
2017-Oct-17 14:00N 35°17' E 139°41'0 0.1
2017-Oct-17 13:30N 35°17' E 139°41'0 0.1
2017-Oct-17 13:00N 35°17' E 139°41'0 0.0
2017-Oct-17 12:30N 35°17' E 139°41'0 0.0
2017-Oct-17 12:00N 35°17' E 139°41'0 0.0
2017-Oct-17 11:30N 35°17' E 139°41'0 0.0
2017-Oct-17 11:00N 35°17' E 139°41'0 0.0
2017-Oct-17 10:30N 35°17' E 139°41'1 2.9
2017-Oct-17 10:00N 35°18' E 139°42'5 9.7
2017-Oct-17 09:30N 35°14' E 139°46'3 6.2
2017-Oct-17 09:00N 35°17' E 139°45'613.0
2017-Oct-17 08:30N 35°23' E 139°42'4 7.1
2017-Oct-17 08:01N 35°26' E 139°42'510.8
2017-Oct-17 07:30N 35°21' E 139°41'4 6.8
2017-Oct-17 06:57N 35°17' E 139°41'0 0.0
2017-Oct-17 06:30N 35°17' E 139°41'0 0.0
2017-Oct-17 06:00N 35°17' E 139°41'4 8.6
2017-Oct-17 05:30N 35°21' E 139°42'612.1
2017-Oct-17 05:01N 35°27' E 139°44'1 2.4
2017-Oct-17 04:30N 35°28' E 139°44'0 0.0
2017-Oct-17 04:01N 35°28' E 139°44'0 0.1
2017-Oct-17 03:30N 35°28' E 139°44'0 0.5
2017-Oct-17 03:00N 35°28' E 139°44'0 0.1
2017-Oct-17 02:30N 35°28' E 139°44'0 0.2
2017-Oct-17 02:00N 35°28' E 139°44'0 0.2
2017-Oct-17 01:29N 35°28' E 139°44'0 0.0
2017-Oct-17 01:00N 35°28' E 139°44'0 0.1
2017-Oct-17 00:31N 35°28' E 139°44'0 0.0
2017-Oct-17 00:01N 35°28' E 139°44'0 0.1
2017-Oct-16 23:31N 35°28' E 139°44'0 0.1
2017-Oct-16 23:00N 35°28' E 139°44'0 0.0
2017-Oct-16 22:31N 35°28' E 139°44'0 0.3
2017-Oct-16 22:00N 35°28' E 139°45'0 0.0
2017-Oct-16 21:31N 35°28' E 139°45'0 0.3
2017-Oct-16 21:00N 35°28' E 139°44'0 0.3
2017-Oct-16 20:30N 35°28' E 139°44'0 0.7
2017-Oct-16 20:00N 35°28' E 139°44'0 0.0
2017-Oct-16 19:30N 35°28' E 139°44'0 0.0
2017-Oct-16 19:00N 35°28' E 139°44'0 0.0
2017-Oct-16 18:31N 35°28' E 139°44'0 0.0
2017-Oct-16 18:00N 35°28' E 139°44'0 0.0
2017-Oct-16 17:31N 35°28' E 139°44'0 0.0
2017-Oct-16 17:01N 35°28' E 139°44'0 0.0
2017-Oct-16 16:30N 35°28' E 139°44'0 0.0
2017-Oct-16 16:01N 35°28' E 139°44'0 0.0
2017-Oct-16 15:30N 35°28' E 139°44'0 0.0
2017-Oct-16 15:01N 35°28' E 139°44'0 0.0
2017-Oct-16 14:01N 35°28' E 139°44'0 0.0
2017-Oct-16 13:31N 35°28' E 139°44'0 0.0
2017-Oct-16 13:01N 35°28' E 139°44'0 1.0
2017-Oct-16 12:30N 35°28' E 139°45'0 0.4
2017-Oct-16 12:00N 35°28' E 139°44'0 0.6
2017-Oct-16 11:30N 35°28' E 139°44'0 0.1
2017-Oct-16 11:01N 35°28' E 139°44'0 0.4
2017-Oct-16 10:31N 35°28' E 139°44'0 0.5
2017-Oct-16 10:00N 35°28' E 139°44'0 0.3
2017-Oct-16 09:31N 35°28' E 139°44'0 0.2
2017-Oct-16 09:01N 35°28' E 139°44'0 0.5
2017-Oct-16 08:31N 35°28' E 139°44'0 0.6
2017-Oct-16 08:01N 35°28' E 139°45'0 0.1
2017-Oct-16 07:31N 35°28' E 139°44'0 0.5
2017-Oct-16 07:01N 35°28' E 139°44'0 0.1
2017-Oct-16 06:30N 35°28' E 139°44'0 0.6
2017-Oct-16 06:00N 35°28' E 139°45'0 0.0
2017-Oct-16 05:31N 35°28' E 139°45'0 0.2
2017-Oct-16 05:01N 35°28' E 139°44'0 0.0
2017-Oct-16 04:30N 35°28' E 139°44'0 0.3
2017-Oct-16 04:00N 35°28' E 139°45'0 0.6
2017-Oct-16 03:31N 35°28' E 139°44'0 0.5
2017-Oct-16 03:00N 35°28' E 139°45'0 0.6
2017-Oct-16 02:30N 35°28' E 139°44'0 0.1
2017-Oct-16 02:00N 35°28' E 139°44'0 0.2
2017-Oct-16 01:31N 35°28' E 139°44'0 0.3
2017-Oct-16 01:01N 35°28' E 139°44'0 0.1
2017-Oct-16 00:30N 35°28' E 139°44'0 0.1
2017-Oct-16 00:01N 35°28' E 139°44'4 8.9
2017-Oct-15 23:31N 35°24' E 139°42'510.6
2017-Oct-15 23:00N 35°19' E 139°42'2 3.6
2017-Oct-15 22:30N 35°17' E 139°41'0 0.0
2017-Oct-15 22:00N 35°17' E 139°41'0 0.0
2017-Oct-15 21:30N 35°17' E 139°41'0 0.0
2017-Oct-15 21:00N 35°17' E 139°41'0 0.0
2017-Oct-15 20:31N 35°17' E 139°41'0 0.0
2017-Oct-15 20:00N 35°17' E 139°41'0 0.0
2017-Oct-15 19:31N 35°17' E 139°41'0 0.0
2017-Oct-15 19:00N 35°17' E 139°41'0 0.0
2017-Oct-15 18:30N 35°17' E 139°41'0 0.0
2017-Oct-15 18:00N 35°17' E 139°41'0 0.0
2017-Oct-15 17:31N 35°17' E 139°41'0 0.1
2017-Oct-15 17:00N 35°17' E 139°41'0 0.1
2017-Oct-15 16:30N 35°17' E 139°41'0 0.0
2017-Oct-15 16:01N 35°17' E 139°41'0 0.0
2017-Oct-15 15:30N 35°17' E 139°41'0 0.0
2017-Oct-15 15:00N 35°17' E 139°41'0 0.0
2017-Oct-15 14:00N 35°17' E 139°41'0 0.0
2017-Oct-15 13:30N 35°17' E 139°41'0 0.0
2017-Oct-15 13:00N 35°17' E 139°41'0 0.0
2017-Oct-15 12:30N 35°17' E 139°41'0 0.0
2017-Oct-15 12:00N 35°17' E 139°41'0 0.0
2017-Oct-15 11:31N 35°17' E 139°41'0 0.0
2017-Oct-15 11:00N 35°17' E 139°41'0 0.0
2017-Oct-15 10:30N 35°17' E 139°41'0 0.0
2017-Oct-15 10:00N 35°17' E 139°41'0 0.0
2017-Oct-15 09:31N 35°17' E 139°41'0 0.0
2017-Oct-15 09:01N 35°17' E 139°41'0 0.0
2017-Oct-15 08:30N 35°17' E 139°41'0 0.0
2017-Oct-15 08:01N 35°17' E 139°41'0 0.0
2017-Oct-15 07:30N 35°17' E 139°41'0 0.0
2017-Oct-15 07:00N 35°17' E 139°41'0 0.0
2017-Oct-15 06:30N 35°17' E 139°41'0 0.0
2017-Oct-15 06:01N 35°17' E 139°41'0 0.0
2017-Oct-15 05:30N 35°17' E 139°41'0 0.0
2017-Oct-15 05:00N 35°17' E 139°41'0 0.0
2017-Oct-15 04:30N 35°17' E 139°41'0 0.0
2017-Oct-15 04:00N 35°17' E 139°41'0 0.0
2017-Oct-15 03:30N 35°17' E 139°41'0 0.0
2017-Oct-15 03:00N 35°17' E 139°41'0 0.0
2017-Oct-15 02:30N 35°17' E 139°41'0 0.0
2017-Oct-15 02:00N 35°17' E 139°41'0 0.0
2017-Oct-15 01:30N 35°17' E 139°41'0 0.0
2017-Oct-15 01:00N 35°17' E 139°41'0 0.0
2017-Oct-15 00:30N 35°17' E 139°41'0 0.0
2017-Oct-15 00:00N 35°17' E 139°41'0 0.0
2017-Oct-14 23:30N 35°17' E 139°41'0 0.0
2017-Oct-14 23:00N 35°17' E 139°41'0 0.0
2017-Oct-14 22:31N 35°17' E 139°41'0 0.0
2017-Oct-14 22:01N 35°17' E 139°41'0 0.0
2017-Oct-14 21:31N 35°17' E 139°41'0 0.0
2017-Oct-14 21:01N 35°17' E 139°41'0 0.0
2017-Oct-14 20:31N 35°17' E 139°41'0 0.0
2017-Oct-14 20:00N 35°17' E 139°41'0 0.0
2017-Oct-14 19:31N 35°17' E 139°41'0 0.0
2017-Oct-14 19:01N 35°17' E 139°41'0 0.0
2017-Oct-14 18:31N 35°17' E 139°41'0 0.0
2017-Oct-14 18:01N 35°17' E 139°41'0 0.0
2017-Oct-14 17:31N 35°17' E 139°41'0 0.0
2017-Oct-14 17:01N 35°17' E 139°41'0 0.0
2017-Oct-14 16:31N 35°17' E 139°41'0 0.0
2017-Oct-14 16:00N 35°17' E 139°41'0 0.0
2017-Oct-14 15:31N 35°17' E 139°41'0 0.0
2017-Oct-14 15:00N 35°17' E 139°41'0 0.0
2017-Oct-14 14:31N 35°17' E 139°41'0 0.0
2017-Oct-14 14:00N 35°17' E 139°41'0 0.0
2017-Oct-14 13:31N 35°17' E 139°41'0 0.0
2017-Oct-14 13:01N 35°17' E 139°41'0 0.0
2017-Oct-14 12:30N 35°17' E 139°41'0 0.0
2017-Oct-14 12:00N 35°17' E 139°41'0 0.0
2017-Oct-14 11:31N 35°17' E 139°41'0 0.0
2017-Oct-14 11:00N 35°17' E 139°41'0 0.0
2017-Oct-14 10:31N 35°17' E 139°41'0 0.0
2017-Oct-14 10:01N 35°17' E 139°41'0 0.0
2017-Oct-14 09:30N 35°17' E 139°41'0 0.1
2017-Oct-14 09:00N 35°17' E 139°41'0 0.1
2017-Oct-14 08:30N 35°17' E 139°41'0 0.0
2017-Oct-14 08:00N 35°17' E 139°41'0 0.0
2017-Oct-14 07:30N 35°17' E 139°41'0 0.0
2017-Oct-14 07:01N 35°17' E 139°41'0 0.0
2017-Oct-14 06:31N 35°17' E 139°41'0 0.0
2017-Oct-14 06:01N 35°17' E 139°41'0 0.0
2017-Oct-14 05:31N 35°17' E 139°41'0 0.0
2017-Oct-14 05:01N 35°17' E 139°41'0 0.0
2017-Oct-14 04:30N 35°17' E 139°41'0 0.0
2017-Oct-14 04:01N 35°17' E 139°41'0 0.0
2017-Oct-14 03:31N 35°17' E 139°41'0 0.0
2017-Oct-14 03:01N 35°17' E 139°41'0 0.0
2017-Oct-14 02:30N 35°17' E 139°41'0 0.0
2017-Oct-14 02:00N 35°17' E 139°41'0 0.0
2017-Oct-14 01:30N 35°17' E 139°41'0 0.0
2017-Oct-14 01:01N 35°17' E 139°41'0 0.0
2017-Oct-14 00:31N 35°17' E 139°41'3 6.2
2017-Oct-14 00:01N 35°16' E 139°44'3 5.6
2017-Oct-13 23:24N 35°14' E 139°46'512.6
2017-Oct-13 23:01N 35°18' E 139°44'612.7
2017-Oct-13 22:30N 35°24' E 139°43'11 7.2
2017-Oct-13 21:00N 35°31' E 139°54'612.8
2017-Oct-13 20:30N 35°26' E 139°49'510.8
2017-Oct-13 20:00N 35°22' E 139°45'611.3
2017-Oct-13 19:30N 35°16' E 139°46'611.3
2017-Oct-13 19:00N 35°10' E 139°47'3 5.6
2017-Oct-13 18:31N 35°12' E 139°45'2 3.6
2017-Oct-13 18:01N 35°13' E 139°43'0 0.0
2017-Oct-13 17:30N 35°13' E 139°43'0 0.0
2017-Oct-13 17:00N 35°13' E 139°43'0 0.0
2017-Oct-13 16:30N 35°13' E 139°43'0 0.0
2017-Oct-13 16:00N 35°13' E 139°43'0 0.0
2017-Oct-13 15:30N 35°13' E 139°43'0 0.0
2017-Oct-13 14:58N 35°13' E 139°43'0 0.0
2017-Oct-13 14:30N 35°13' E 139°43'0 0.0
2017-Oct-13 14:01N 35°13' E 139°43'0 0.0
2017-Oct-13 13:30N 35°13' E 139°43'0 0.0
2017-Oct-13 13:00N 35°13' E 139°43'3 5.7
2017-Oct-13 12:31N 35°12' E 139°46'611.0
2017-Oct-13 12:01N 35°17' E 139°44'713.0
2017-Oct-13 11:30N 35°23' E 139°41'1 1.2
2017-Oct-13 11:00N 35°23' E 139°40'1 2.1
2017-Oct-13 10:30N 35°22' E 139°41'5 9.5
2017-Oct-13 10:00N 35°18' E 139°43'4 8.8
2017-Oct-13 09:31N 35°13' E 139°44'2 3.8
2017-Oct-13 09:00N 35°12' E 139°46'4 7.6
2017-Oct-13 08:30N 35°16' E 139°46'612.1
2017-Oct-13 08:00N 35°21' E 139°42'5 9.7
2017-Oct-13 07:30N 35°26' E 139°42'0 0.1
2017-Oct-13 07:00N 35°26' E 139°42'5 9.1
2017-Oct-13 06:30N 35°22' E 139°41'5 4.2
2017-Oct-13 05:24N 35°17' E 139°41'0 0.0
2017-Oct-13 04:52N 35°17' E 139°41'0 0.0
2017-Oct-13 02:33N 35°17' E 139°41'0 2.3
2017-Oct-13 02:30N 35°17' E 139°41'0 0.2
2017-Oct-13 02:00N 35°17' E 139°41'0 0.0
2017-Oct-13 01:30N 35°17' E 139°41'0 0.0
2017-Oct-13 01:00N 35°17' E 139°41'0 0.0
2017-Oct-13 00:13N 35°17' E 139°41'0 0.0
2017-Oct-12 23:57N 35°17' E 139°41'0 0.0
2017-Oct-12 23:30N 35°17' E 139°41'0 0.0
2017-Oct-12 23:00N 35°17' E 139°41'0 0.0
2017-Oct-12 22:30N 35°17' E 139°41'0 0.0
2017-Oct-12 22:00N 35°17' E 139°41'0 0.0
2017-Oct-12 21:30N 35°17' E 139°41'0 0.0
2017-Oct-12 21:00N 35°17' E 139°41'0 0.0
2017-Oct-12 20:30N 35°17' E 139°41'0 0.0
2017-Oct-12 20:00N 35°17' E 139°41'0 0.0
2017-Oct-12 19:30N 35°17' E 139°41'0 0.0
2017-Oct-12 19:00N 35°17' E 139°41'0 0.0
2017-Oct-12 18:30N 35°17' E 139°41'0 0.0
2017-Oct-12 17:59N 35°17' E 139°41'0 0.0
2017-Oct-12 17:30N 35°17' E 139°41'0 0.0
2017-Oct-12 14:29N 35°17' E 139°41'0 0.0
2017-Oct-12 06:23N 35°17' E 139°41'0 0.0
2017-Oct-12 02:59N 35°17' E 139°41'3 6.9
2017-Oct-12 02:30N 35°20' E 139°42'611.6
2017-Oct-12 02:00N 35°26' E 139°42'2 3.3
2017-Oct-12 01:30N 35°28' E 139°43'0 0.3
2017-Oct-12 01:00N 35°27' E 139°43'0 0.3
2017-Oct-12 00:27N 35°28' E 139°43'0 0.0
2017-Oct-12 00:00N 35°28' E 139°43'0 0.1
2017-Oct-11 23:02N 35°28' E 139°43'0 1.8
2017-Oct-11 22:57N 35°28' E 139°43'0 0.3
2017-Oct-11 22:22N 35°28' E 139°43'0 0.3
2017-Oct-11 21:14N 35°28' E 139°43'0 0.0
2017-Oct-11 20:54N 35°28' E 139°43'0 0.4
2017-Oct-11 20:26N 35°28' E 139°43'0 0.1
2017-Oct-11 18:37N 35°28' E 139°43'0 0.0
2017-Oct-11 18:30N 35°28' E 139°43'0 0.1
2017-Oct-11 17:56N 35°28' E 139°43'0 0.2
2017-Oct-11 17:30N 35°28' E 139°43'0 0.0
2017-Oct-11 00:00N 35°27' E 139°43'9 6.5
2017-Oct-10 22:40N 35°19' E 139°42'210.8
2017-Oct-10 22:30N 35°17' E 139°41'1 0.1
2017-Oct-10 13:53N 35°17' E 139°41'0 0.0
2017-Oct-10 07:20N 35°17' E 139°41'0 0.0
2017-Oct-10 06:34N 35°17' E 139°41'0 0.0
2017-Oct-10 06:18N 35°17' E 139°41'0 0.0
2017-Oct-10 05:56N 35°17' E 139°41'0 0.0
2017-Oct-10 05:30N 35°17' E 139°41'0 0.0
2017-Oct-10 04:56N 35°17' E 139°41'0 0.0
2017-Oct-10 04:28N 35°17' E 139°41'0 0.0
2017-Oct-10 04:00N 35°17' E 139°41'0 0.0
2017-Oct-10 03:30N 35°17' E 139°41'0 0.0
2017-Oct-10 03:00N 35°17' E 139°41'0 0.0
2017-Oct-10 02:29N 35°17' E 139°41'0 0.0
2017-Oct-10 02:00N 35°17' E 139°41'0 0.0
2017-Oct-10 01:14N 35°17' E 139°41'0 0.0
2017-Oct-10 01:00N 35°17' E 139°41'0 0.0
2017-Oct-10 00:30N 35°17' E 139°41'1 1.5
2017-Oct-10 00:00N 35°17' E 139°41'611.3
2017-Oct-09 23:30N 35°23' E 139°40'2 3.2
2017-Oct-09 23:00N 35°24' E 139°38'0 0.8
2017-Oct-09 22:30N 35°24' E 139°38'0 0.5
2017-Oct-09 22:00N 35°24' E 139°38'3 5.8
2017-Oct-09 21:29N 35°23' E 139°42'6 5.8
2017-Oct-09 20:27N 35°18' E 139°45'511.8
2017-Oct-09 20:00N 35°13' E 139°47'2 4.5
2017-Oct-09 19:30N 35°11' E 139°47'4 8.4
2017-Oct-09 19:00N 35°13' E 139°43'0 0.0
2017-Oct-09 18:30N 35°13' E 139°43'0 0.0
2017-Oct-09 18:00N 35°13' E 139°43'0 0.0
2017-Oct-09 17:30N 35°13' E 139°43'0 0.0
2017-Oct-09 17:00N 35°13' E 139°43'0 0.0
2017-Oct-09 16:30N 35°13' E 139°43'0 0.0
2017-Oct-09 16:00N 35°13' E 139°43'0 0.0
2017-Oct-09 15:30N 35°13' E 139°43'0 0.0
2017-Oct-09 15:00N 35°13' E 139°43'0 0.0
2017-Oct-09 14:30N 35°13' E 139°43'0 0.0
2017-Oct-09 14:00N 35°13' E 139°43'0 0.0
2017-Oct-09 13:30N 35°13' E 139°43'0 0.0
2017-Oct-09 13:00N 35°13' E 139°43'0 0.0
2017-Oct-09 12:30N 35°13' E 139°43'0 0.0
2017-Oct-09 12:00N 35°13' E 139°43'0 0.0
2017-Oct-09 11:30N 35°13' E 139°43'0 0.0
2017-Oct-09 11:00N 35°13' E 139°43'0 0.0
2017-Oct-09 10:30N 35°13' E 139°43'0 0.0
2017-Oct-09 10:00N 35°13' E 139°43'3 5.3
2017-Oct-09 09:30N 35°12' E 139°46'510.5
2017-Oct-09 09:00N 35°18' E 139°44'612.7
2017-Oct-09 08:30N 35°24' E 139°42'6 2.4
2017-Oct-09 05:50N 35°18' E 139°45'412.2
2017-Oct-09 05:30N 35°14' E 139°47'4 8.5
2017-Oct-09 05:00N 35°10' E 139°47'5 9.3
2017-Oct-09 04:30N 35°14' E 139°46'5 9.3
2017-Oct-09 04:00N 35°17' E 139°41'0 0.2
2017-Oct-09 01:47N 35°17' E 139°41'  
Track history (hours):
 
Tides and Currents Weather Stations Pressure Air Temp Water Temp Dewpoint Dewpoint Depression Visibility Wind Speed Wind Dir Waves Ship Positions

Kanto Maru

Last reported at 2017-Oct-19 01:30 UTC. Time now 2017-Oct-19 01:42 UTC.
Position N 35°23' E 139°40'.

Length 40 m.

Type: Tug. MMSI: 431000841.

Date/timePositionNaut miles runAvg speedWind from/ knotsBaromVisibWave heightAir tempDewpointWater temp
2017-Oct-19 01:30N 35°23' E 139°40'0 0.0
2017-Oct-19 01:00N 35°23' E 139°40'0 0.0
2017-Oct-19 00:30N 35°23' E 139°40'5 9.1
2017-Oct-18 23:55N 35°25' E 139°46'4 9.1
2017-Oct-18 23:30N 35°21' E 139°45'611.1
2017-Oct-18 23:00N 35°16' E 139°46'611.1
2017-Oct-18 22:30N 35°10' E 139°47'0 0.9
2017-Oct-18 22:00N 35°11' E 139°47'611.6
2017-Oct-18 21:29N 35°17' E 139°44'3 5.9
2017-Oct-18 21:00N 35°17' E 139°41'0 0.0
2017-Oct-18 20:30N 35°17' E 139°41'0 0.0
2017-Oct-18 20:00N 35°17' E 139°41'0 0.0
2017-Oct-18 19:30N 35°17' E 139°41'0 0.0
2017-Oct-18 19:00N 35°17' E 139°41'0 0.0
2017-Oct-18 18:30N 35°17' E 139°41'0 0.0
2017-Oct-18 17:59N 35°17' E 139°41'0 0.0
2017-Oct-18 17:29N 35°17' E 139°41'0 0.0
2017-Oct-18 17:00N 35°17' E 139°41'0 0.0
2017-Oct-18 16:30N 35°17' E 139°41'0 0.0
2017-Oct-18 16:00N 35°17' E 139°41'0 0.0
2017-Oct-18 15:30N 35°17' E 139°41'0 0.0
2017-Oct-18 14:55N 35°17' E 139°41'0 0.0
2017-Oct-18 13:56N 35°17' E 139°41'0 0.0
2017-Oct-18 11:39N 35°17' E 139°41'0 0.0
2017-Oct-18 10:05N 35°17' E 139°41'0 0.0
2017-Oct-18 09:52N 35°17' E 139°41'0 0.0
2017-Oct-18 09:30N 35°17' E 139°41'0 0.0
2017-Oct-18 08:49N 35°17' E 139°41'0 0.0
2017-Oct-18 08:29N 35°17' E 139°41'0 0.0
2017-Oct-18 07:57N 35°17' E 139°41'0 0.0
2017-Oct-18 07:27N 35°17' E 139°41'0 0.7
2017-Oct-18 07:00N 35°17' E 139°41'2 3.1
2017-Oct-18 06:31N 35°19' E 139°41'2 3.3
2017-Oct-18 06:00N 35°17' E 139°41'0 0.0
2017-Oct-18 05:20N 35°17' E 139°41'0 0.0
2017-Oct-18 01:18N 35°17' E 139°41'2 5.5
2017-Oct-18 01:00N 35°19' E 139°41'2 4.0
2017-Oct-18 00:30N 35°17' E 139°39'0 0.1
2017-Oct-18 00:00N 35°17' E 139°39'0 0.3
2017-Oct-17 23:30N 35°17' E 139°39'1 2.2
2017-Oct-17 23:00N 35°17' E 139°41'0 0.3
2017-Oct-17 22:30N 35°17' E 139°41'0 0.0
2017-Oct-17 22:00N 35°17' E 139°41'0 0.0
2017-Oct-17 21:30N 35°17' E 139°41'0 0.0
2017-Oct-17 21:00N 35°17' E 139°41'0 0.0
2017-Oct-17 20:30N 35°17' E 139°41'0 0.0
2017-Oct-17 20:00N 35°17' E 139°41'0 0.1
2017-Oct-17 19:30N 35°17' E 139°41'0 0.1
2017-Oct-17 19:00N 35°17' E 139°41'0 0.0
2017-Oct-17 18:30N 35°17' E 139°41'0 0.0
2017-Oct-17 18:00N 35°17' E 139°41'0 0.0
2017-Oct-17 17:30N 35°17' E 139°41'0 0.0
2017-Oct-17 17:00N 35°17' E 139°41'0 0.0
2017-Oct-17 16:30N 35°17' E 139°41'0 0.0
2017-Oct-17 16:00N 35°17' E 139°41'0 0.0
2017-Oct-17 15:30N 35°17' E 139°41'0 0.0
2017-Oct-17 15:00N 35°17' E 139°41'0 0.0
2017-Oct-17 14:30N 35°17' E 139°41'0 0.0
2017-Oct-17 14:00N 35°17' E 139°41'0 0.1
2017-Oct-17 13:30N 35°17' E 139°41'0 0.1
2017-Oct-17 13:00N 35°17' E 139°41'0 0.0
2017-Oct-17 12:30N 35°17' E 139°41'0 0.0
2017-Oct-17 12:00N 35°17' E 139°41'0 0.0
2017-Oct-17 11:30N 35°17' E 139°41'0 0.0
2017-Oct-17 11:00N 35°17' E 139°41'0 0.0
2017-Oct-17 10:30N 35°17' E 139°41'1 2.9
2017-Oct-17 10:00N 35°18' E 139°42'5 9.7
2017-Oct-17 09:30N 35°14' E 139°46'3 6.2
2017-Oct-17 09:00N 35°17' E 139°45'613.0
2017-Oct-17 08:30N 35°23' E 139°42'4 7.1
2017-Oct-17 08:01N 35°26' E 139°42'510.8
2017-Oct-17 07:30N 35°21' E 139°41'4 6.8
2017-Oct-17 06:57N 35°17' E 139°41'0 0.0
2017-Oct-17 06:30N 35°17' E 139°41'0 0.0
2017-Oct-17 06:00N 35°17' E 139°41'4 8.6
2017-Oct-17 05:30N 35°21' E 139°42'612.1
2017-Oct-17 05:01N 35°27' E 139°44'1 2.4
2017-Oct-17 04:30N 35°28' E 139°44'0 0.0
2017-Oct-17 04:01N 35°28' E 139°44'0 0.1
2017-Oct-17 03:30N 35°28' E 139°44'0 0.5
2017-Oct-17 03:00N 35°28' E 139°44'0 0.1
2017-Oct-17 02:30N 35°28' E 139°44'0 0.2
2017-Oct-17 02:00N 35°28' E 139°44'0 0.2
2017-Oct-17 01:29N 35°28' E 139°44'0 0.0
2017-Oct-17 01:00N 35°28' E 139°44'0 0.1
2017-Oct-17 00:31N 35°28' E 139°44'0 0.0
2017-Oct-17 00:01N 35°28' E 139°44'0 0.1
2017-Oct-16 23:31N 35°28' E 139°44'0 0.1
2017-Oct-16 23:00N 35°28' E 139°44'0 0.0
2017-Oct-16 22:31N 35°28' E 139°44'0 0.3
2017-Oct-16 22:00N 35°28' E 139°45'0 0.0
2017-Oct-16 21:31N 35°28' E 139°45'0 0.3
2017-Oct-16 21:00N 35°28' E 139°44'0 0.3
2017-Oct-16 20:30N 35°28' E 139°44'0 0.7
2017-Oct-16 20:00N 35°28' E 139°44'0 0.0
2017-Oct-16 19:30N 35°28' E 139°44'0 0.0
2017-Oct-16 19:00N 35°28' E 139°44'0 0.0
2017-Oct-16 18:31N 35°28' E 139°44'0 0.0
2017-Oct-16 18:00N 35°28' E 139°44'0 0.0
2017-Oct-16 17:31N 35°28' E 139°44'0 0.0
2017-Oct-16 17:01N 35°28' E 139°44'0 0.0
2017-Oct-16 16:30N 35°28' E 139°44'0 0.0
2017-Oct-16 16:01N 35°28' E 139°44'0 0.0
2017-Oct-16 15:30N 35°28' E 139°44'0 0.0
2017-Oct-16 15:01N 35°28' E 139°44'0 0.0
2017-Oct-16 14:01N 35°28' E 139°44'0 0.0
2017-Oct-16 13:31N 35°28' E 139°44'0 0.0
2017-Oct-16 13:01N 35°28' E 139°44'0 1.0
2017-Oct-16 12:30N 35°28' E 139°45'0 0.4
2017-Oct-16 12:00N 35°28' E 139°44'0 0.6
2017-Oct-16 11:30N 35°28' E 139°44'0 0.1
2017-Oct-16 11:01N 35°28' E 139°44'0 0.4
2017-Oct-16 10:31N 35°28' E 139°44'0 0.5
2017-Oct-16 10:00N 35°28' E 139°44'0 0.3
2017-Oct-16 09:31N 35°28' E 139°44'0 0.2
2017-Oct-16 09:01N 35°28' E 139°44'0 0.5
2017-Oct-16 08:31N 35°28' E 139°44'0 0.6
2017-Oct-16 08:01N 35°28' E 139°45'0 0.1
2017-Oct-16 07:31N 35°28' E 139°44'0 0.5
2017-Oct-16 07:01N 35°28' E 139°44'0 0.1
2017-Oct-16 06:30N 35°28' E 139°44'0 0.6
2017-Oct-16 06:00N 35°28' E 139°45'0 0.0
2017-Oct-16 05:31N 35°28' E 139°45'0 0.2
2017-Oct-16 05:01N 35°28' E 139°44'0 0.0
2017-Oct-16 04:30N 35°28' E 139°44'0 0.3
2017-Oct-16 04:00N 35°28' E 139°45'0 0.6
2017-Oct-16 03:31N 35°28' E 139°44'0 0.5
2017-Oct-16 03:00N 35°28' E 139°45'0 0.6
2017-Oct-16 02:30N 35°28' E 139°44'0 0.1
2017-Oct-16 02:00N 35°28' E 139°44'0 0.2
2017-Oct-16 01:31N 35°28' E 139°44'0 0.3
2017-Oct-16 01:01N 35°28' E 139°44'0 0.1
2017-Oct-16 00:30N 35°28' E 139°44'0 0.1
2017-Oct-16 00:01N 35°28' E 139°44'4 8.9
2017-Oct-15 23:31N 35°24' E 139°42'510.6
2017-Oct-15 23:00N 35°19' E 139°42'2 3.6
2017-Oct-15 22:30N 35°17' E 139°41'0 0.0
2017-Oct-15 22:00N 35°17' E 139°41'0 0.0
2017-Oct-15 21:30N 35°17' E 139°41'0 0.0
2017-Oct-15 21:00N 35°17' E 139°41'0 0.0
2017-Oct-15 20:31N 35°17' E 139°41'0 0.0
2017-Oct-15 20:00N 35°17' E 139°41'0 0.0
2017-Oct-15 19:31N 35°17' E 139°41'0 0.0
2017-Oct-15 19:00N 35°17' E 139°41'0 0.0
2017-Oct-15 18:30N 35°17' E 139°41'0 0.0
2017-Oct-15 18:00N 35°17' E 139°41'0 0.0
2017-Oct-15 17:31N 35°17' E 139°41'0 0.1
2017-Oct-15 17:00N 35°17' E 139°41'0 0.1
2017-Oct-15 16:30N 35°17' E 139°41'0 0.0
2017-Oct-15 16:01N 35°17' E 139°41'0 0.0
2017-Oct-15 15:30N 35°17' E 139°41'0 0.0
2017-Oct-15 15:00N 35°17' E 139°41'0 0.0
2017-Oct-15 14:00N 35°17' E 139°41'0 0.0
2017-Oct-15 13:30N 35°17' E 139°41'0 0.0
2017-Oct-15 13:00N 35°17' E 139°41'0 0.0
2017-Oct-15 12:30N 35°17' E 139°41'0 0.0
2017-Oct-15 12:00N 35°17' E 139°41'0 0.0
2017-Oct-15 11:31N 35°17' E 139°41'0 0.0
2017-Oct-15 11:00N 35°17' E 139°41'0 0.0
2017-Oct-15 10:30N 35°17' E 139°41'0 0.0
2017-Oct-15 10:00N 35°17' E 139°41'0 0.0
2017-Oct-15 09:31N 35°17' E 139°41'0 0.0
2017-Oct-15 09:01N 35°17' E 139°41'0 0.0
2017-Oct-15 08:30N 35°17' E 139°41'0 0.0
2017-Oct-15 08:01N 35°17' E 139°41'0 0.0
2017-Oct-15 07:30N 35°17' E 139°41'0 0.0
2017-Oct-15 07:00N 35°17' E 139°41'0 0.0
2017-Oct-15 06:30N 35°17' E 139°41'0 0.0
2017-Oct-15 06:01N 35°17' E 139°41'0 0.0
2017-Oct-15 05:30N 35°17' E 139°41'0 0.0
2017-Oct-15 05:00N 35°17' E 139°41'0 0.0
2017-Oct-15 04:30N 35°17' E 139°41'0 0.0
2017-Oct-15 04:00N 35°17' E 139°41'0 0.0
2017-Oct-15 03:30N 35°17' E 139°41'0 0.0
2017-Oct-15 03:00N 35°17' E 139°41'0 0.0
2017-Oct-15 02:30N 35°17' E 139°41'0 0.0
2017-Oct-15 02:00N 35°17' E 139°41'0 0.0
2017-Oct-15 01:30N 35°17' E 139°41'0 0.0
2017-Oct-15 01:00N 35°17' E 139°41'0 0.0
2017-Oct-15 00:30N 35°17' E 139°41'0 0.0
2017-Oct-15 00:00N 35°17' E 139°41'0 0.0
2017-Oct-14 23:30N 35°17' E 139°41'0 0.0
2017-Oct-14 23:00N 35°17' E 139°41'0 0.0
2017-Oct-14 22:31N 35°17' E 139°41'0 0.0
2017-Oct-14 22:01N 35°17' E 139°41'0 0.0
2017-Oct-14 21:31N 35°17' E 139°41'0 0.0
2017-Oct-14 21:01N 35°17' E 139°41'0 0.0
2017-Oct-14 20:31N 35°17' E 139°41'0 0.0
2017-Oct-14 20:00N 35°17' E 139°41'0 0.0
2017-Oct-14 19:31N 35°17' E 139°41'0 0.0
2017-Oct-14 19:01N 35°17' E 139°41'0 0.0
2017-Oct-14 18:31N 35°17' E 139°41'0 0.0
2017-Oct-14 18:01N 35°17' E 139°41'0 0.0
2017-Oct-14 17:31N 35°17' E 139°41'0 0.0
2017-Oct-14 17:01N 35°17' E 139°41'0 0.0
2017-Oct-14 16:31N 35°17' E 139°41'0 0.0
2017-Oct-14 16:00N 35°17' E 139°41'0 0.0
2017-Oct-14 15:31N 35°17' E 139°41'0 0.0
2017-Oct-14 15:00N 35°17' E 139°41'0 0.0
2017-Oct-14 14:31N 35°17' E 139°41'0 0.0
2017-Oct-14 14:00N 35°17' E 139°41'0 0.0
2017-Oct-14 13:31N 35°17' E 139°41'0 0.0
2017-Oct-14 13:01N 35°17' E 139°41'0 0.0
2017-Oct-14 12:30N 35°17' E 139°41'0 0.0
2017-Oct-14 12:00N 35°17' E 139°41'0 0.0
2017-Oct-14 11:31N 35°17' E 139°41'0 0.0
2017-Oct-14 11:00N 35°17' E 139°41'0 0.0
2017-Oct-14 10:31N 35°17' E 139°41'0 0.0
2017-Oct-14 10:01N 35°17' E 139°41'0 0.0
2017-Oct-14 09:30N 35°17' E 139°41'0 0.1
2017-Oct-14 09:00N 35°17' E 139°41'0 0.1
2017-Oct-14 08:30N 35°17' E 139°41'0 0.0
2017-Oct-14 08:00N 35°17' E 139°41'0 0.0
2017-Oct-14 07:30N 35°17' E 139°41'0 0.0
2017-Oct-14 07:01N 35°17' E 139°41'0 0.0
2017-Oct-14 06:31N 35°17' E 139°41'0 0.0
2017-Oct-14 06:01N 35°17' E 139°41'0 0.0
2017-Oct-14 05:31N 35°17' E 139°41'0 0.0
2017-Oct-14 05:01N 35°17' E 139°41'0 0.0
2017-Oct-14 04:30N 35°17' E 139°41'0 0.0
2017-Oct-14 04:01N 35°17' E 139°41'0 0.0
2017-Oct-14 03:31N 35°17' E 139°41'0 0.0
2017-Oct-14 03:01N 35°17' E 139°41'0 0.0
2017-Oct-14 02:30N 35°17' E 139°41'0 0.0
2017-Oct-14 02:00N 35°17' E 139°41'0 0.0
2017-Oct-14 01:30N 35°17' E 139°41'0 0.0
2017-Oct-14 01:01N 35°17' E 139°41'0 0.0
2017-Oct-14 00:31N 35°17' E 139°41'3 6.2
2017-Oct-14 00:01N 35°16' E 139°44'3 5.6
2017-Oct-13 23:24N 35°14' E 139°46'512.6
2017-Oct-13 23:01N 35°18' E 139°44'612.7
2017-Oct-13 22:30N 35°24' E 139°43'11 7.2
2017-Oct-13 21:00N 35°31' E 139°54'612.8
2017-Oct-13 20:30N 35°26' E 139°49'510.8
2017-Oct-13 20:00N 35°22' E 139°45'611.3
2017-Oct-13 19:30N 35°16' E 139°46'611.3
2017-Oct-13 19:00N 35°10' E 139°47'3 5.6
2017-Oct-13 18:31N 35°12' E 139°45'2 3.6
2017-Oct-13 18:01N 35°13' E 139°43'0 0.0
2017-Oct-13 17:30N 35°13' E 139°43'0 0.0
2017-Oct-13 17:00N 35°13' E 139°43'0 0.0
2017-Oct-13 16:30N 35°13' E 139°43'0 0.0
2017-Oct-13 16:00N 35°13' E 139°43'0 0.0
2017-Oct-13 15:30N 35°13' E 139°43'0 0.0
2017-Oct-13 14:58N 35°13' E 139°43'0 0.0
2017-Oct-13 14:30N 35°13' E 139°43'0 0.0
2017-Oct-13 14:01N 35°13' E 139°43'0 0.0
2017-Oct-13 13:30N 35°13' E 139°43'0 0.0
2017-Oct-13 13:00N 35°13' E 139°43'3 5.7
2017-Oct-13 12:31N 35°12' E 139°46'611.0
2017-Oct-13 12:01N 35°17' E 139°44'713.0
2017-Oct-13 11:30N 35°23' E 139°41'1 1.2
2017-Oct-13 11:00N 35°23' E 139°40'1 2.1
2017-Oct-13 10:30N 35°22' E 139°41'5 9.5
2017-Oct-13 10:00N 35°18' E 139°43'4 8.8
2017-Oct-13 09:31N 35°13' E 139°44'2 3.8
2017-Oct-13 09:00N 35°12' E 139°46'4 7.6
2017-Oct-13 08:30N 35°16' E 139°46'612.1
2017-Oct-13 08:00N 35°21' E 139°42'5 9.7
2017-Oct-13 07:30N 35°26' E 139°42'0 0.1
2017-Oct-13 07:00N 35°26' E 139°42'5 9.1
2017-Oct-13 06:30N 35°22' E 139°41'5 4.2
2017-Oct-13 05:24N 35°17' E 139°41'0 0.0
2017-Oct-13 04:52N 35°17' E 139°41'0 0.0
2017-Oct-13 02:33N 35°17' E 139°41'0 2.3
2017-Oct-13 02:30N 35°17' E 139°41'0 0.2
2017-Oct-13 02:00N 35°17' E 139°41'0 0.0
2017-Oct-13 01:30N 35°17' E 139°41'0 0.0
2017-Oct-13 01:00N 35°17' E 139°41'0 0.0
2017-Oct-13 00:13N 35°17' E 139°41'0 0.0
2017-Oct-12 23:57N 35°17' E 139°41'0 0.0
2017-Oct-12 23:30N 35°17' E 139°41'0 0.0
2017-Oct-12 23:00N 35°17' E 139°41'0 0.0
2017-Oct-12 22:30N 35°17' E 139°41'0 0.0
2017-Oct-12 22:00N 35°17' E 139°41'0 0.0
2017-Oct-12 21:30N 35°17' E 139°41'0 0.0
2017-Oct-12 21:00N 35°17' E 139°41'0 0.0
2017-Oct-12 20:30N 35°17' E 139°41'0 0.0
2017-Oct-12 20:00N 35°17' E 139°41'0 0.0
2017-Oct-12 19:30N 35°17' E 139°41'0 0.0
2017-Oct-12 19:00N 35°17' E 139°41'0 0.0
2017-Oct-12 18:30N 35°17' E 139°41'0 0.0
2017-Oct-12 17:59N 35°17' E 139°41'0 0.0
2017-Oct-12 17:30N 35°17' E 139°41'0 0.0
2017-Oct-12 14:29N 35°17' E 139°41'0 0.0
2017-Oct-12 06:23N 35°17' E 139°41'0 0.0
2017-Oct-12 02:59N 35°17' E 139°41'3 6.9
2017-Oct-12 02:30N 35°20' E 139°42'611.6
2017-Oct-12 02:00N 35°26' E 139°42'2 3.3
2017-Oct-12 01:30N 35°28' E 139°43'0 0.3
2017-Oct-12 01:00N 35°27' E 139°43'0 0.3
2017-Oct-12 00:27N 35°28' E 139°43'0 0.0
2017-Oct-12 00:00N 35°28' E 139°43'0 0.1
2017-Oct-11 23:02N 35°28' E 139°43'0 1.8
2017-Oct-11 22:57N 35°28' E 139°43'0 0.3
2017-Oct-11 22:22N 35°28' E 139°43'0 0.3
2017-Oct-11 21:14N 35°28' E 139°43'0 0.0
2017-Oct-11 20:54N 35°28' E 139°43'0 0.4
2017-Oct-11 20:26N 35°28' E 139°43'0 0.1
2017-Oct-11 18:37N 35°28' E 139°43'0 0.0
2017-Oct-11 18:30N 35°28' E 139°43'0 0.1
2017-Oct-11 17:56N 35°28' E 139°43'0 0.2
2017-Oct-11 17:30N 35°28' E 139°43'0 0.0
2017-Oct-11 00:00N 35°27' E 139°43'9 6.5
2017-Oct-10 22:40N 35°19' E 139°42'210.8
2017-Oct-10 22:30N 35°17' E 139°41'1 0.1
2017-Oct-10 13:53N 35°17' E 139°41'0 0.0
2017-Oct-10 07:20N 35°17' E 139°41'0 0.0
2017-Oct-10 06:34N 35°17' E 139°41'0 0.0
2017-Oct-10 06:18N 35°17' E 139°41'0 0.0
2017-Oct-10 05:56N 35°17' E 139°41'0 0.0
2017-Oct-10 05:30N 35°17' E 139°41'0 0.0
2017-Oct-10 04:56N 35°17' E 139°41'0 0.0
2017-Oct-10 04:28N 35°17' E 139°41'0 0.0
2017-Oct-10 04:00N 35°17' E 139°41'0 0.0
2017-Oct-10 03:30N 35°17' E 139°41'0 0.0
2017-Oct-10 03:00N 35°17' E 139°41'0 0.0
2017-Oct-10 02:29N 35°17' E 139°41'0 0.0
2017-Oct-10 02:00N 35°17' E 139°41'0 0.0
2017-Oct-10 01:14N 35°17' E 139°41'0 0.0
2017-Oct-10 01:00N 35°17' E 139°41'0 0.0
2017-Oct-10 00:30N 35°17' E 139°41'1 1.5
2017-Oct-10 00:00N 35°17' E 139°41'611.3
2017-Oct-09 23:30N 35°23' E 139°40'2 3.2
2017-Oct-09 23:00N 35°24' E 139°38'0 0.8
2017-Oct-09 22:30N 35°24' E 139°38'0 0.5
2017-Oct-09 22:00N 35°24' E 139°38'3 5.8
2017-Oct-09 21:29N 35°23' E 139°42'6 5.8
2017-Oct-09 20:27N 35°18' E 139°45'511.8
2017-Oct-09 20:00N 35°13' E 139°47'2 4.5
2017-Oct-09 19:30N 35°11' E 139°47'4 8.4
2017-Oct-09 19:00N 35°13' E 139°43'0 0.0
2017-Oct-09 18:30N 35°13' E 139°43'0 0.0
2017-Oct-09 18:00N 35°13' E 139°43'0 0.0
2017-Oct-09 17:30N 35°13' E 139°43'0 0.0
2017-Oct-09 17:00N 35°13' E 139°43'0 0.0
2017-Oct-09 16:30N 35°13' E 139°43'0 0.0
2017-Oct-09 16:00N 35°13' E 139°43'0 0.0
2017-Oct-09 15:30N 35°13' E 139°43'0 0.0
2017-Oct-09 15:00N 35°13' E 139°43'0 0.0
2017-Oct-09 14:30N 35°13' E 139°43'0 0.0
2017-Oct-09 14:00N 35°13' E 139°43'0 0.0
2017-Oct-09 13:30N 35°13' E 139°43'0 0.0
2017-Oct-09 13:00N 35°13' E 139°43'0 0.0
2017-Oct-09 12:30N 35°13' E 139°43'0 0.0
2017-Oct-09 12:00N 35°13' E 139°43'0 0.0
2017-Oct-09 11:30N 35°13' E 139°43'0 0.0
2017-Oct-09 11:00N 35°13' E 139°43'0 0.0
2017-Oct-09 10:30N 35°13' E 139°43'0 0.0
2017-Oct-09 10:00N 35°13' E 139°43'3 5.3
2017-Oct-09 09:30N 35°12' E 139°46'510.5
2017-Oct-09 09:00N 35°18' E 139°44'612.7
2017-Oct-09 08:30N 35°24' E 139°42'6 2.4
2017-Oct-09 05:50N 35°18' E 139°45'412.2
2017-Oct-09 05:30N 35°14' E 139°47'4 8.5
2017-Oct-09 05:00N 35°10' E 139°47'5 9.3
2017-Oct-09 04:30N 35°14' E 139°46'5 9.3
2017-Oct-09 04:00N 35°17' E 139°41'0 0.2
2017-Oct-09 01:47N 35°17' E 139°41'  

Dump ship's entire track history